Wilderville, Texas
Current Conditions -  °F | °C
As of 6:55 PM on Saturday 22 Nov 2014 (Local Time) from KT35 Reporting Station
Light Rain Light Rain  
Wind Chill: 61°   Ceiling: 3400
Heat Index: 61°   Visibility: 10mi
Dew Point: 60°   Wind: 10mph
Humidity: 96%   Direction: 80°E
Pressure: 29.79"   Gusts: NA
Location:  31.0981°N, 96.99°W
Report Text: KT35 230055Z AUTO 08009KT 10SM -RA SCT020 BKN034 OVC043 16/16 A2979 RMK AO2 LTG DSNT ALQS P0040 T01620155
Loading
Personal Weather Stations






























Interactive Weather Map New forecast layout! Learn more

10-Day Weather Forecast

Advertisements
Track Severe Weather on mobile